sensor_id;sensor_type;location;lat;lon;timestamp;temperature;humidity
1429;DHT22;708;51.442;7.016;2023-04-06T00:00:15;5.70;99.90
1429;DHT22;708;51.442;7.016;2023-04-06T00:02:42;5.70;99.90
1429;DHT22;708;51.442;7.016;2023-04-06T00:05:09;5.60;99.90
1429;DHT22;708;51.442;7.016;2023-04-06T00:07:36;5.60;99.90
1429;DHT22;708;51.442;7.016;2023-04-06T00:10:04;5.50;99.90
1429;DHT22;708;51.442;7.016;2023-04-06T00:12:31;5.40;99.90
1429;DHT22;708;51.442;7.016;2023-04-06T00:14:57;5.40;99.90
1429;DHT22;708;51.442;7.016;2023-04-06T00:17:25;5.40;99.90
1429;DHT22;708;51.442;7.016;2023-04-06T00:19:52;5.30;99.90
1429;DHT22;708;51.442;7.016;2023-04-06T00:22:19;5.30;99.90
1429;DHT22;708;51.442;7.016;2023-04-06T00:24:46;5.30;99.90
1429;DHT22;708;51.442;7.016;2023-04-06T00:27:12;5.30;99.90
1429;DHT22;708;51.442;7.016;2023-04-06T00:29:40;5.30;99.90
1429;DHT22;708;51.442;7.016;2023-04-06T00:32:07;5.30;99.90
1429;DHT22;708;51.442;7.016;2023-04-06T00:34:35;5.30;99.90
1429;DHT22;708;51.442;7.016;2023-04-06T00:37:01;5.30;99.90
1429;DHT22;708;51.442;7.016;2023-04-06T00:39:28;5.30;99.90
1429;DHT22;708;51.442;7.016;2023-04-06T00:41:55;5.20;99.90
1429;DHT22;708;51.442;7.016;2023-04-06T00:44:23;5.30;99.90
1429;DHT22;708;51.442;7.016;2023-04-06T00:46:50;5.30;99.90
1429;DHT22;708;51.442;7.016;2023-04-06T00:49:17;5.20;99.90
1429;DHT22;708;51.442;7.016;2023-04-06T00:51:45;5.10;99.90
1429;DHT22;708;51.442;7.016;2023-04-06T00:54:12;5.00;99.90
1429;DHT22;708;51.442;7.016;2023-04-06T00:56:39;5.00;99.90
1429;DHT22;708;51.442;7.016;2023-04-06T00:59:05;4.90;99.90
1429;DHT22;708;51.442;7.016;2023-04-06T01:01:32;4.90;99.90
1429;DHT22;708;51.442;7.016;2023-04-06T01:03:59;4.90;99.90
1429;DHT22;708;51.442;7.016;2023-04-06T01:06:28;4.90;99.90
1429;DHT22;708;51.442;7.016;2023-04-06T01:08:56;4.90;99.90
1429;DHT22;708;51.442;7.016;2023-04-06T01:11:23;4.80;99.90
1429;DHT22;708;51.442;7.016;2023-04-06T01:13:49;4.80;99.90
1429;DHT22;708;51.442;7.016;2023-04-06T01:16:16;4.80;99.90
1429;DHT22;708;51.442;7.016;2023-04-06T01:18:43;4.80;99.90
1429;DHT22;708;51.442;7.016;2023-04-06T01:21:10;4.80;99.90
1429;DHT22;708;51.442;7.016;2023-04-06T01:23:44;4.80;99.90
1429;DHT22;708;51.442;7.016;2023-04-06T01:26:11;4.80;99.90
1429;DHT22;708;51.442;7.016;2023-04-06T01:28:38;4.70;99.90
1429;DHT22;708;51.442;7.016;2023-04-06T01:31:07;4.70;99.90
1429;DHT22;708;51.442;7.016;2023-04-06T01:33:34;4.60;99.90
1429;DHT22;708;51.442;7.016;2023-04-06T01:36:01;4.60;99.90
1429;DHT22;708;51.442;7.016;2023-04-06T01:38:28;4.60;99.90
1429;DHT22;708;51.442;7.016;2023-04-06T01:40:56;4.50;99.90
1429;DHT22;708;51.442;7.016;2023-04-06T01:43:23;4.50;99.90
1429;DHT22;708;51.442;7.016;2023-04-06T01:45:50;4.50;1.00
1429;DHT22;708;51.442;7.016;2023-04-06T01:48:16;4.40;1.00
1429;DHT22;708;51.442;7.016;2023-04-06T01:50:43;4.40;1.00
1429;DHT22;708;51.442;7.016;2023-04-06T01:53:10;4.40;1.00
1429;DHT22;708;51.442;7.016;2023-04-06T01:55:37;4.30;1.00
1429;DHT22;708;51.442;7.016;2023-04-06T01:58:05;4.30;1.00
1429;DHT22;708;51.442;7.016;2023-04-06T02:00:32;4.20;1.00
1429;DHT22;708;51.442;7.016;2023-04-06T02:02:58;4.30;1.00
1429;DHT22;708;51.442;7.016;2023-04-06T02:05:25;4.20;1.00
1429;DHT22;708;51.442;7.016;2023-04-06T02:07:52;4.20;1.00
1429;DHT22;708;51.442;7.016;2023-04-06T02:10:19;4.20;1.00
1429;DHT22;708;51.442;7.016;2023-04-06T02:12:46;4.20;1.00
1429;DHT22;708;51.442;7.016;2023-04-06T02:15:14;4.20;1.00
1429;DHT22;708;51.442;7.016;2023-04-06T02:17:41;4.20;1.00
1429;DHT22;708;51.442;7.016;2023-04-06T02:20:09;4.20;1.00
1429;DHT22;708;51.442;7.016;2023-04-06T02:22:35;4.30;1.00
1429;DHT22;708;51.442;7.016;2023-04-06T02:25:02;4.20;1.00
1429;DHT22;708;51.442;7.016;2023-04-06T02:27:29;4.20;99.90
1429;DHT22;708;51.442;7.016;2023-04-06T02:29:56;4.20;99.90
1429;DHT22;708;51.442;7.016;2023-04-06T02:32:24;4.20;99.90
1429;DHT22;708;51.442;7.016;2023-04-06T02:34:51;4.20;99.90
1429;DHT22;708;51.442;7.016;2023-04-06T02:37:18;4.20;99.90
1429;DHT22;708;51.442;7.016;2023-04-06T02:39:46;4.20;99.90
1429;DHT22;708;51.442;7.016;2023-04-06T02:42:13;4.20;99.90
1429;DHT22;708;51.442;7.016;2023-04-06T02:44:40;4.20;99.90
1429;DHT22;708;51.442;7.016;2023-04-06T02:47:07;4.20;99.90
1429;DHT22;708;51.442;7.016;2023-04-06T02:49:35;4.30;99.90
1429;DHT22;708;51.442;7.016;2023-04-06T02:52:02;4.30;99.90
1429;DHT22;708;51.442;7.016;2023-04-06T02:54:29;4.30;99.90
1429;DHT22;708;51.442;7.016;2023-04-06T02:56:56;4.30;99.90
1429;DHT22;708;51.442;7.016;2023-04-06T02:59:23;4.30;99.90
1429;DHT22;708;51.442;7.016;2023-04-06T03:01:51;4.30;99.90
1429;DHT22;708;51.442;7.016;2023-04-06T03:04:17;4.30;99.90
1429;DHT22;708;51.442;7.016;2023-04-06T03:06:45;4.40;99.90
1429;DHT22;708;51.442;7.016;2023-04-06T03:09:12;4.40;99.90
1429;DHT22;708;51.442;7.016;2023-04-06T03:11:39;4.40;99.90
1429;DHT22;708;51.442;7.016;2023-04-06T03:14:06;4.40;99.90
1429;DHT22;708;51.442;7.016;2023-04-06T03:16:33;4.40;99.90
1429;DHT22;708;51.442;7.016;2023-04-06T03:19:00;4.40;99.90
1429;DHT22;708;51.442;7.016;2023-04-06T03:21:26;4.40;99.90
1429;DHT22;708;51.442;7.016;2023-04-06T03:23:54;4.40;99.90
1429;DHT22;708;51.442;7.016;2023-04-06T03:26:21;4.40;99.90
1429;DHT22;708;51.442;7.016;2023-04-06T03:28:48;4.40;99.90
1429;DHT22;708;51.442;7.016;2023-04-06T03:31:15;4.30;99.90
1429;DHT22;708;51.442;7.016;2023-04-06T03:33:41;4.40;99.90
1429;DHT22;708;51.442;7.016;2023-04-06T03:36:08;4.30;99.90
1429;DHT22;708;51.442;7.016;2023-04-06T03:38:35;4.30;99.90
1429;DHT22;708;51.442;7.016;2023-04-06T03:41:03;4.30;99.90
1429;DHT22;708;51.442;7.016;2023-04-06T03:43:30;4.30;99.90
1429;DHT22;708;51.442;7.016;2023-04-06T03:45:57;4.30;99.90
1429;DHT22;708;51.442;7.016;2023-04-06T03:48:24;4.30;99.90
1429;DHT22;708;51.442;7.016;2023-04-06T03:50:50;4.20;99.90
1429;DHT22;708;51.442;7.016;2023-04-06T03:53:17;4.20;99.90
1429;DHT22;708;51.442;7.016;2023-04-06T03:55:44;4.20;99.90
1429;DHT22;708;51.442;7.016;2023-04-06T03:58:12;4.20;99.90
1429;DHT22;708;51.442;7.016;2023-04-06T04:00:39;4.20;99.90
1429;DHT22;708;51.442;7.016;2023-04-06T04:03:05;4.20;99.90
1429;DHT22;708;51.442;7.016;2023-04-06T04:05:32;4.10;99.90
1429;DHT22;708;51.442;7.016;2023-04-06T04:07:59;4.10;99.90
1429;DHT22;708;51.442;7.016;2023-04-06T04:10:26;4.10;99.90
1429;DHT22;708;51.442;7.016;2023-04-06T04:12:52;4.10;99.90
1429;DHT22;708;51.442;7.016;2023-04-06T04:15:20;4.10;99.90
1429;DHT22;708;51.442;7.016;2023-04-06T04:17:47;4.10;99.90
1429;DHT22;708;51.442;7.016;2023-04-06T04:20:14;4.10;99.90
1429;DHT22;708;51.442;7.016;2023-04-06T04:22:41;4.10;99.90
1429;DHT22;708;51.442;7.016;2023-04-06T04:25:09;4.10;99.90
1429;DHT22;708;51.442;7.016;2023-04-06T04:27:35;4.10;99.90
1429;DHT22;708;51.442;7.016;2023-04-06T04:30:02;4.10;99.90
1429;DHT22;708;51.442;7.016;2023-04-06T04:32:31;4.10;99.90
1429;DHT22;708;51.442;7.016;2023-04-06T04:34:57;4.10;99.90
1429;DHT22;708;51.442;7.016;2023-04-06T04:37:24;4.20;99.90
1429;DHT22;708;51.442;7.016;2023-04-06T04:39:52;4.20;99.90
1429;DHT22;708;51.442;7.016;2023-04-06T04:42:19;4.20;99.90
1429;DHT22;708;51.442;7.016;2023-04-06T04:44:46;4.20;99.90
1429;DHT22;708;51.442;7.016;2023-04-06T04:47:13;4.20;99.90
1429;DHT22;708;51.442;7.016;2023-04-06T04:49:41;4.20;99.90
1429;DHT22;708;51.442;7.016;2023-04-06T04:52:07;4.20;99.90
1429;DHT22;708;51.442;7.016;2023-04-06T04:54:34;4.30;99.90
1429;DHT22;708;51.442;7.016;2023-04-06T04:57:01;4.30;99.90
1429;DHT22;708;51.442;7.016;2023-04-06T04:59:28;4.40;99.90
1429;DHT22;708;51.442;7.016;2023-04-06T05:01:55;4.40;99.90
1429;DHT22;708;51.442;7.016;2023-04-06T05:04:22;4.50;99.90
1429;DHT22;708;51.442;7.016;2023-04-06T05:06:50;4.50;99.90
1429;DHT22;708;51.442;7.016;2023-04-06T05:09:17;4.60;99.90
1429;DHT22;708;51.442;7.016;2023-04-06T05:11:44;4.70;99.90
1429;DHT22;708;51.442;7.016;2023-04-06T05:14:11;4.70;99.90
1429;DHT22;708;51.442;7.016;2023-04-06T05:16:37;4.80;99.90
1429;DHT22;708;51.442;7.016;2023-04-06T05:19:04;4.90;99.90
1429;DHT22;708;51.442;7.016;2023-04-06T05:21:31;4.90;99.90
1429;DHT22;708;51.442;7.016;2023-04-06T05:23:59;5.00;99.90
1429;DHT22;708;51.442;7.016;2023-04-06T05:26:27;5.20;99.90
1429;DHT22;708;51.442;7.016;2023-04-06T05:28:54;5.20;99.90
1429;DHT22;708;51.442;7.016;2023-04-06T05:31:21;5.40;99.90
1429;DHT22;708;51.442;7.016;2023-04-06T05:33:48;5.50;99.90
1429;DHT22;708;51.442;7.016;2023-04-06T05:36:15;5.70;99.90
1429;DHT22;708;51.442;7.016;2023-04-06T05:38:42;6.10;99.90
1429;DHT22;708;51.442;7.016;2023-04-06T05:41:10;6.60;99.90
1429;DHT22;708;51.442;7.016;2023-04-06T05:43:37;7.00;99.50
1429;DHT22;708;51.442;7.016;2023-04-06T05:46:04;7.40;96.10
1429;DHT22;708;51.442;7.016;2023-04-06T05:48:31;8.00;92.00
1429;DHT22;708;51.442;7.016;2023-04-06T05:50:57;8.80;84.00
1429;DHT22;708;51.442;7.016;2023-04-06T05:53:25;9.70;73.50
1429;DHT22;708;51.442;7.016;2023-04-06T05:55:52;10.50;60.10
1429;DHT22;708;51.442;7.016;2023-04-06T05:58:20;11.20;55.20
1429;DHT22;708;51.442;7.016;2023-04-06T06:00:46;11.90;50.40
1429;DHT22;708;51.442;7.016;2023-04-06T06:03:13;12.50;47.00
1429;DHT22;708;51.442;7.016;2023-04-06T06:05:40;13.20;45.20
1429;DHT22;708;51.442;7.016;2023-04-06T06:08:07;13.70;41.50
1429;DHT22;708;51.442;7.016;2023-04-06T06:10:34;14.20;39.40
1429;DHT22;708;51.442;7.016;2023-04-06T06:13:01;14.60;37.50
1429;DHT22;708;51.442;7.016;2023-04-06T06:15:29;14.90;36.50
1429;DHT22;708;51.442;7.016;2023-04-06T06:17:56;15.20;35.10
1429;DHT22;708;51.442;7.016;2023-04-06T06:20:22;15.50;44.50
1429;DHT22;708;51.442;7.016;2023-04-06T06:22:49;15.60;33.20
1429;DHT22;708;51.442;7.016;2023-04-06T06:25:16;15.60;31.50
1429;DHT22;708;51.442;7.016;2023-04-06T06:27:43;15.90;30.80
1429;DHT22;708;51.442;7.016;2023-04-06T06:30:10;16.30;30.70
1429;DHT22;708;51.442;7.016;2023-04-06T06:32:39;16.70;30.00
1429;DHT22;708;51.442;7.016;2023-04-06T06:35:06;17.30;29.10
1429;DHT22;708;51.442;7.016;2023-04-06T06:37:33;17.50;28.70
1429;DHT22;708;51.442;7.016;2023-04-06T06:40:00;17.60;27.20
1429;DHT22;708;51.442;7.016;2023-04-06T06:42:26;17.60;27.20
1429;DHT22;708;51.442;7.016;2023-04-06T06:44:54;18.00;26.60
1429;DHT22;708;51.442;7.016;2023-04-06T06:47:20;18.40;25.70
1429;DHT22;708;51.442;7.016;2023-04-06T06:49:49;18.80;25.40
1429;DHT22;708;51.442;7.016;2023-04-06T06:52:15;19.20;25.10
1429;DHT22;708;51.442;7.016;2023-04-06T06:54:42;19.50;24.30
1429;DHT22;708;51.442;7.016;2023-04-06T06:57:09;19.90;23.80
1429;DHT22;708;51.442;7.016;2023-04-06T06:59:36;20.30;22.90
1429;DHT22;708;51.442;7.016;2023-04-06T07:02:03;20.70;22.30
1429;DHT22;708;51.442;7.016;2023-04-06T07:04:30;21.10;22.10
1429;DHT22;708;51.442;7.016;2023-04-06T07:06:58;21.40;22.50
1429;DHT22;708;51.442;7.016;2023-04-06T07:09:24;21.60;21.20
1429;DHT22;708;51.442;7.016;2023-04-06T07:11:52;22.10;23.80
1429;DHT22;708;51.442;7.016;2023-04-06T07:14:18;22.20;12.80
1429;DHT22;708;51.442;7.016;2023-04-06T07:16:48;22.50;19.50
1429;DHT22;708;51.442;7.016;2023-04-06T07:19:15;22.70;18.80
1429;DHT22;708;51.442;7.016;2023-04-06T07:21:42;22.80;18.60
1429;DHT22;708;51.442;7.016;2023-04-06T07:24:10;22.70;17.80
1429;DHT22;708;51.442;7.016;2023-04-06T07:26:37;23.10;17.60
1429;DHT22;708;51.442;7.016;2023-04-06T07:29:06;23.30;17.10
1429;DHT22;708;51.442;7.016;2023-04-06T07:31:32;23.70;16.70
1429;DHT22;708;51.442;7.016;2023-04-06T07:34:00;23.90;16.10
1429;DHT22;708;51.442;7.016;2023-04-06T07:36:27;24.20;16.20
1429;DHT22;708;51.442;7.016;2023-04-06T07:38:54;24.50;15.60
1429;DHT22;708;51.442;7.016;2023-04-06T07:41:23;24.90;15.00
1429;DHT22;708;51.442;7.016;2023-04-06T07:43:50;24.80;15.70
1429;DHT22;708;51.442;7.016;2023-04-06T07:46:17;25.10;13.80
1429;DHT22;708;51.442;7.016;2023-04-06T07:48:44;25.20;13.70
1429;DHT22;708;51.442;7.016;2023-04-06T07:51:11;25.40;13.80
1429;DHT22;708;51.442;7.016;2023-04-06T07:53:39;25.40;13.50
1429;DHT22;708;51.442;7.016;2023-04-06T07:56:06;25.40;12.60
1429;DHT22;708;51.442;7.016;2023-04-06T07:58:34;25.90;12.90
1429;DHT22;708;51.442;7.016;2023-04-06T08:01:01;26.40;12.20
1429;DHT22;708;51.442;7.016;2023-04-06T08:03:28;26.70;11.90
1429;DHT22;708;51.442;7.016;2023-04-06T08:05:55;27.10;11.00
1429;DHT22;708;51.442;7.016;2023-04-06T08:08:22;27.40;10.90
1429;DHT22;708;51.442;7.016;2023-04-06T08:10:48;27.10;10.60
1429;DHT22;708;51.442;7.016;2023-04-06T08:13:15;27.00;10.10
1429;DHT22;708;51.442;7.016;2023-04-06T08:15:44;26.70;10.10
1429;DHT22;708;51.442;7.016;2023-04-06T08:18:11;26.20;9.40
1429;DHT22;708;51.442;7.016;2023-04-06T08:20:37;25.30;9.60
1429;DHT22;708;51.442;7.016;2023-04-06T08:23:04;25.10;9.70
1429;DHT22;708;51.442;7.016;2023-04-06T08:25:33;25.00;8.90
1429;DHT22;708;51.442;7.016;2023-04-06T08:28:00;24.30;10.70
1429;DHT22;708;51.442;7.016;2023-04-06T08:30:27;24.00;10.90
1429;DHT22;708;51.442;7.016;2023-04-06T08:32:55;24.30;11.50
1429;DHT22;708;51.442;7.016;2023-04-06T08:37:49;24.50;2.30
1429;DHT22;708;51.442;7.016;2023-04-06T08:40:16;24.50;8.30
1429;DHT22;708;51.442;7.016;2023-04-06T08:42:47;24.60;8.70
1429;DHT22;708;51.442;7.016;2023-04-06T08:45:16;24.80;8.40
1429;DHT22;708;51.442;7.016;2023-04-06T08:47:43;25.00;8.50
1429;DHT22;708;51.442;7.016;2023-04-06T08:50:11;25.10;8.00
1429;DHT22;708;51.442;7.016;2023-04-06T08:52:39;25.30;6.90
1429;DHT22;708;51.442;7.016;2023-04-06T08:55:07;25.20;7.40
1429;DHT22;708;51.442;7.016;2023-04-06T08:57:36;25.10;7.20
1429;DHT22;708;51.442;7.016;2023-04-06T09:00:03;24.80;6.80
1429;DHT22;708;51.442;7.016;2023-04-06T09:02:30;24.60;6.40
1429;DHT22;708;51.442;7.016;2023-04-06T09:04:58;24.40;6.60
1429;DHT22;708;51.442;7.016;2023-04-06T09:07:26;24.30;6.00
1429;DHT22;708;51.442;7.016;2023-04-06T09:09:54;24.70;6.10
1429;DHT22;708;51.442;7.016;2023-04-06T09:12:25;24.90;6.70
1429;DHT22;708;51.442;7.016;2023-04-06T09:14:52;25.60;6.50
1429;DHT22;708;51.442;7.016;2023-04-06T09:17:20;25.60;5.20
1429;DHT22;708;51.442;7.016;2023-04-06T09:19:47;25.70;5.40
1429;DHT22;708;51.442;7.016;2023-04-06T09:22:15;25.90;5.30
1429;DHT22;708;51.442;7.016;2023-04-06T09:24:44;26.10;4.30
1429;DHT22;708;51.442;7.016;2023-04-06T09:27:11;26.10;4.80
1429;DHT22;708;51.442;7.016;2023-04-06T09:29:38;26.40;4.80
1429;DHT22;708;51.442;7.016;2023-04-06T09:32:05;26.70;4.20
1429;DHT22;708;51.442;7.016;2023-04-06T09:34:33;27.10;4.00
1429;DHT22;708;51.442;7.016;2023-04-06T09:37:00;27.20;3.50
1429;DHT22;708;51.442;7.016;2023-04-06T09:39:38;27.00;3.60
1429;DHT22;708;51.442;7.016;2023-04-06T09:42:06;26.70;11.10
1429;DHT22;708;51.442;7.016;2023-04-06T09:44:33;26.50;3.00
1429;DHT22;708;51.442;7.016;2023-04-06T09:47:00;25.70;2.80
1429;DHT22;708;51.442;7.016;2023-04-06T09:49:31;25.10;3.40
1429;DHT22;708;51.442;7.016;2023-04-06T09:52:01;24.30;1.00
1429;DHT22;708;51.442;7.016;2023-04-06T09:54:30;24.10;2.40
1429;DHT22;708;51.442;7.016;2023-04-06T09:57:01;23.60;2.10
1429;DHT22;708;51.442;7.016;2023-04-06T09:59:40;23.30;2.20
1429;DHT22;708;51.442;7.016;2023-04-06T10:02:15;23.10;1.90
1429;DHT22;708;51.442;7.016;2023-04-06T10:04:50;22.90;3.40
1429;DHT22;708;51.442;7.016;2023-04-06T10:07:20;22.60;2.50
1429;DHT22;708;51.442;7.016;2023-04-06T10:09:48;21.80;3.00
1429;DHT22;708;51.442;7.016;2023-04-06T10:12:16;21.60;2.90
1429;DHT22;708;51.442;7.016;2023-04-06T10:14:45;21.50;3.10
1429;DHT22;708;51.442;7.016;2023-04-06T10:17:11;21.30;3.90
1429;DHT22;708;51.442;7.016;2023-04-06T10:19:44;20.90;4.30
1429;DHT22;708;51.442;7.016;2023-04-06T10:22:21;20.80;3.40
1429;DHT22;708;51.442;7.016;2023-04-06T10:24:49;20.80;3.00
1429;DHT22;708;51.442;7.016;2023-04-06T10:27:26;20.70;3.80
1429;DHT22;708;51.442;7.016;2023-04-06T10:30:01;20.70;3.00
1429;DHT22;708;51.442;7.016;2023-04-06T10:32:33;20.70;3.70
1429;DHT22;708;51.442;7.016;2023-04-06T10:35:08;20.40;3.10
1429;DHT22;708;51.442;7.016;2023-04-06T10:37:52;20.40;3.40
1429;DHT22;708;51.442;7.016;2023-04-06T10:40:22;20.40;3.50
1429;DHT22;708;51.442;7.016;2023-04-06T10:42:49;20.50;3.00
1429;DHT22;708;51.442;7.016;2023-04-06T10:45:22;20.40;2.90
1429;DHT22;708;51.442;7.016;2023-04-06T10:47:53;20.40;3.00
1429;DHT22;708;51.442;7.016;2023-04-06T10:50:21;20.10;2.40
1429;DHT22;708;51.442;7.016;2023-04-06T10:52:59;20.10;2.80
1429;DHT22;708;51.442;7.016;2023-04-06T10:55:26;20.10;3.30
1429;DHT22;708;51.442;7.016;2023-04-06T10:57:53;20.10;4.10
1429;DHT22;708;51.442;7.016;2023-04-06T11:00:22;20.00;3.20
1429;DHT22;708;51.442;7.016;2023-04-06T11:02:50;19.90;2.70
1429;DHT22;708;51.442;7.016;2023-04-06T11:05:16;19.60;2.90
1429;DHT22;708;51.442;7.016;2023-04-06T11:07:44;19.50;3.10
1429;DHT22;708;51.442;7.016;2023-04-06T11:10:11;19.50;3.00
1429;DHT22;708;51.442;7.016;2023-04-06T11:12:38;19.40;3.40
1429;DHT22;708;51.442;7.016;2023-04-06T11:15:06;19.40;4.00
1429;DHT22;708;51.442;7.016;2023-04-06T11:17:35;19.60;3.90
1429;DHT22;708;51.442;7.016;2023-04-06T11:20:09;19.60;4.00
1429;DHT22;708;51.442;7.016;2023-04-06T11:22:36;19.60;3.40
1429;DHT22;708;51.442;7.016;2023-04-06T11:25:14;19.50;3.40
1429;DHT22;708;51.442;7.016;2023-04-06T11:27:43;19.80;3.60
1429;DHT22;708;51.442;7.016;2023-04-06T11:30:10;19.80;3.70
1429;DHT22;708;51.442;7.016;2023-04-06T11:32:41;19.40;4.00
1429;DHT22;708;51.442;7.016;2023-04-06T11:35:11;19.50;3.90
1429;DHT22;708;51.442;7.016;2023-04-06T11:37:38;19.40;3.70
1429;DHT22;708;51.442;7.016;2023-04-06T11:40:09;19.40;3.80
1429;DHT22;708;51.442;7.016;2023-04-06T11:42:36;19.30;3.30
1429;DHT22;708;51.442;7.016;2023-04-06T11:45:04;19.30;4.00
1429;DHT22;708;51.442;7.016;2023-04-06T11:47:32;19.00;3.70
1429;DHT22;708;51.442;7.016;2023-04-06T11:50:08;18.80;3.70
1429;DHT22;708;51.442;7.016;2023-04-06T11:52:36;18.80;4.20
1429;DHT22;708;51.442;7.016;2023-04-06T11:55:11;19.00;3.90
1429;DHT22;708;51.442;7.016;2023-04-06T11:57:38;19.10;3.80
1429;DHT22;708;51.442;7.016;2023-04-06T12:00:06;19.10;4.20
1429;DHT22;708;51.442;7.016;2023-04-06T12:02:33;18.90;4.40
1429;DHT22;708;51.442;7.016;2023-04-06T12:05:00;18.80;3.80
1429;DHT22;708;51.442;7.016;2023-04-06T12:07:28;18.90;4.50
1429;DHT22;708;51.442;7.016;2023-04-06T12:09:55;19.10;3.60
1429;DHT22;708;51.442;7.016;2023-04-06T12:12:22;19.30;4.10
1429;DHT22;708;51.442;7.016;2023-04-06T12:14:49;19.30;3.70
1429;DHT22;708;51.442;7.016;2023-04-06T12:17:15;19.00;3.50
1429;DHT22;708;51.442;7.016;2023-04-06T12:19:42;19.00;3.90
1429;DHT22;708;51.442;7.016;2023-04-06T12:22:09;18.90;3.90
1429;DHT22;708;51.442;7.016;2023-04-06T12:24:37;18.90;4.00
1429;DHT22;708;51.442;7.016;2023-04-06T12:27:04;18.90;3.70
1429;DHT22;708;51.442;7.016;2023-04-06T12:29:31;18.90;3.40
1429;DHT22;708;51.442;7.016;2023-04-06T12:31:59;18.90;4.60
1429;DHT22;708;51.442;7.016;2023-04-06T12:34:26;18.90;4.20
1429;DHT22;708;51.442;7.016;2023-04-06T12:36:53;18.90;4.30
1429;DHT22;708;51.442;7.016;2023-04-06T12:39:21;18.90;4.70
1429;DHT22;708;51.442;7.016;2023-04-06T12:41:49;19.00;4.40
1429;DHT22;708;51.442;7.016;2023-04-06T12:44:16;18.90;4.60
1429;DHT22;708;51.442;7.016;2023-04-06T12:46:43;19.00;4.30
1429;DHT22;708;51.442;7.016;2023-04-06T12:49:10;19.00;4.60
1429;DHT22;708;51.442;7.016;2023-04-06T12:51:37;18.90;5.10
1429;DHT22;708;51.442;7.016;2023-04-06T12:54:04;18.90;4.40
1429;DHT22;708;51.442;7.016;2023-04-06T12:56:32;18.90;4.70
1429;DHT22;708;51.442;7.016;2023-04-06T12:59:00;18.80;5.10
1429;DHT22;708;51.442;7.016;2023-04-06T13:01:27;18.70;5.20
1429;DHT22;708;51.442;7.016;2023-04-06T13:03:55;18.70;5.00
1429;DHT22;708;51.442;7.016;2023-04-06T13:06:22;18.70;5.70
1429;DHT22;708;51.442;7.016;2023-04-06T13:08:54;18.60;5.20
1429;DHT22;708;51.442;7.016;2023-04-06T13:11:21;18.60;5.40
1429;DHT22;708;51.442;7.016;2023-04-06T13:13:49;18.50;5.30
1429;DHT22;708;51.442;7.016;2023-04-06T13:16:18;18.50;5.70
1429;DHT22;708;51.442;7.016;2023-04-06T13:18:44;18.50;5.70
1429;DHT22;708;51.442;7.016;2023-04-06T13:21:13;18.50;5.90
1429;DHT22;708;51.442;7.016;2023-04-06T13:23:42;18.40;5.60
1429;DHT22;708;51.442;7.016;2023-04-06T13:26:09;18.30;6.00
1429;DHT22;708;51.442;7.016;2023-04-06T13:28:36;18.40;6.50
1429;DHT22;708;51.442;7.016;2023-04-06T13:31:05;18.50;5.70
1429;DHT22;708;51.442;7.016;2023-04-06T13:33:33;18.50;6.20
1429;DHT22;708;51.442;7.016;2023-04-06T13:36:01;18.40;6.50
1429;DHT22;708;51.442;7.016;2023-04-06T13:38:28;18.20;7.10
1429;DHT22;708;51.442;7.016;2023-04-06T13:40:55;18.20;6.70
1429;DHT22;708;51.442;7.016;2023-04-06T13:43:23;18.20;7.60
1429;DHT22;708;51.442;7.016;2023-04-06T13:45:52;18.10;7.80
1429;DHT22;708;51.442;7.016;2023-04-06T13:48:20;17.90;7.90
1429;DHT22;708;51.442;7.016;2023-04-06T13:50:49;17.80;7.50
1429;DHT22;708;51.442;7.016;2023-04-06T13:53:15;17.80;8.20
1429;DHT22;708;51.442;7.016;2023-04-06T13:55:42;17.70;8.50
1429;DHT22;708;51.442;7.016;2023-04-06T13:58:09;17.60;9.30
1429;DHT22;708;51.442;7.016;2023-04-06T14:00:36;17.50;8.50
1429;DHT22;708;51.442;7.016;2023-04-06T14:03:03;17.40;8.90
1429;DHT22;708;51.442;7.016;2023-04-06T14:05:31;17.30;8.40
1429;DHT22;708;51.442;7.016;2023-04-06T14:07:59;17.20;8.50
1429;DHT22;708;51.442;7.016;2023-04-06T14:10:26;17.10;8.50
1429;DHT22;708;51.442;7.016;2023-04-06T14:12:53;17.20;8.70
1429;DHT22;708;51.442;7.016;2023-04-06T14:15:21;17.10;9.00
1429;DHT22;708;51.442;7.016;2023-04-06T14:17:49;17.00;8.70
1429;DHT22;708;51.442;7.016;2023-04-06T14:20:16;16.90;9.70
1429;DHT22;708;51.442;7.016;2023-04-06T14:22:43;16.90;9.30
1429;DHT22;708;51.442;7.016;2023-04-06T14:25:12;16.60;10.90
1429;DHT22;708;51.442;7.016;2023-04-06T14:27:38;16.20;12.00
1429;DHT22;708;51.442;7.016;2023-04-06T14:30:06;15.80;11.80
1429;DHT22;708;51.442;7.016;2023-04-06T14:32:33;15.60;12.90
1429;DHT22;708;51.442;7.016;2023-04-06T14:35:02;15.50;13.70
1429;DHT22;708;51.442;7.016;2023-04-06T14:37:29;15.70;18.80
1429;DHT22;708;51.442;7.016;2023-04-06T14:39:56;15.70;15.50
1429;DHT22;708;51.442;7.016;2023-04-06T14:42:24;15.70;15.90
1429;DHT22;708;51.442;7.016;2023-04-06T14:44:51;15.80;16.40
1429;DHT22;708;51.442;7.016;2023-04-06T14:47:19;15.70;16.50
1429;DHT22;708;51.442;7.016;2023-04-06T14:49:47;15.70;16.90
1429;DHT22;708;51.442;7.016;2023-04-06T14:52:14;15.70;17.20
1429;DHT22;708;51.442;7.016;2023-04-06T14:54:41;15.80;18.40
1429;DHT22;708;51.442;7.016;2023-04-06T14:57:07;15.90;18.50
1429;DHT22;708;51.442;7.016;2023-04-06T14:59:35;15.60;19.10
1429;DHT22;708;51.442;7.016;2023-04-06T15:02:02;15.60;19.60
1429;DHT22;708;51.442;7.016;2023-04-06T15:04:29;15.60;21.10
1429;DHT22;708;51.442;7.016;2023-04-06T15:06:56;15.50;22.80
1429;DHT22;708;51.442;7.016;2023-04-06T15:09:23;15.40;24.50
1429;DHT22;708;51.442;7.016;2023-04-06T15:11:50;15.30;24.60
1429;DHT22;708;51.442;7.016;2023-04-06T15:14:17;15.30;25.30
1429;DHT22;708;51.442;7.016;2023-04-06T15:16:45;15.30;25.30
1429;DHT22;708;51.442;7.016;2023-04-06T15:19:12;15.40;26.10
1429;DHT22;708;51.442;7.016;2023-04-06T15:21:38;15.40;25.60
1429;DHT22;708;51.442;7.016;2023-04-06T15:24:06;15.30;25.90
1429;DHT22;708;51.442;7.016;2023-04-06T15:26:35;15.40;25.30
1429;DHT22;708;51.442;7.016;2023-04-06T15:29:02;15.40;25.10
1429;DHT22;708;51.442;7.016;2023-04-06T15:31:30;15.50;25.20
1429;DHT22;708;51.442;7.016;2023-04-06T15:34:00;15.60;25.80
1429;DHT22;708;51.442;7.016;2023-04-06T15:36:29;15.50;25.60
1429;DHT22;708;51.442;7.016;2023-04-06T15:38:57;15.30;26.40
1429;DHT22;708;51.442;7.016;2023-04-06T15:41:23;15.20;28.40
1429;DHT22;708;51.442;7.016;2023-04-06T15:43:51;14.90;29.10
1429;DHT22;708;51.442;7.016;2023-04-06T15:46:18;14.70;32.20
1429;DHT22;708;51.442;7.016;2023-04-06T15:48:45;14.40;35.40
1429;DHT22;708;51.442;7.016;2023-04-06T15:51:14;14.10;41.80
1429;DHT22;708;51.442;7.016;2023-04-06T15:53:42;13.80;50.70
1429;DHT22;708;51.442;7.016;2023-04-06T15:56:09;13.60;61.90
1429;DHT22;708;51.442;7.016;2023-04-06T15:58:36;13.60;74.90
1429;DHT22;708;51.442;7.016;2023-04-06T16:01:10;13.40;98.60
1429;DHT22;708;51.442;7.016;2023-04-06T16:03:37;13.30;99.90
1429;DHT22;708;51.442;7.016;2023-04-06T16:06:04;13.10;99.90
1429;DHT22;708;51.442;7.016;2023-04-06T16:08:33;12.90;99.90
1429;DHT22;708;51.442;7.016;2023-04-06T16:11:00;13.00;99.90
1429;DHT22;708;51.442;7.016;2023-04-06T16:13:28;12.90;99.90
1429;DHT22;708;51.442;7.016;2023-04-06T16:15:55;12.90;99.90
1429;DHT22;708;51.442;7.016;2023-04-06T16:18:22;12.90;99.90
1429;DHT22;708;51.442;7.016;2023-04-06T16:20:49;12.80;99.90
1429;DHT22;708;51.442;7.016;2023-04-06T16:23:16;12.80;1.00
1429;DHT22;708;51.442;7.016;2023-04-06T16:25:44;12.80;1.00
1429;DHT22;708;51.442;7.016;2023-04-06T16:28:11;12.80;1.00
1429;DHT22;708;51.442;7.016;2023-04-06T16:30:39;12.80;47.10
1429;DHT22;708;51.442;7.016;2023-04-06T16:33:06;12.80;99.90